Time;durP1;ratioP1;P1;durP2;ratioP2;P2;SDS_P1;SDS_P2;PMS_P1;PMS_P2;Temp;Humidity;BMP_temperature;BMP_pressure;BME280_temperature;BME280_humidity;BME280_pressure;Samples;Min_cycle;Max_cycle;Signal;HPM_P1;HPM_P2
2022/06/30 00:00:58;;;;;;;22.93;18.98;;;;;;;19.91;81.97;96982.28;1742818;80;25853;-75
2022/06/30 00:03:25;;;;;;;23.18;18.67;;;;;;;19.89;81.91;96985.84;1749224;80;25706;-75
2022/06/30 00:05:51;;;;;;;23.15;17.80;;;;;;;19.88;81.84;96984.20;1761368;80;25850;-74
2022/06/30 00:08:18;;;;;;;23.30;16.35;;;;;;;19.86;81.73;96980.92;1767088;81;28121;-74
2022/06/30 00:10:44;;;;;;;24.43;18.15;;;;;;;19.83;81.55;96982.84;1742710;80;25717;-74
2022/06/30 00:13:12;;;;;;;20.35;17.20;;;;;;;19.77;81.54;96988.36;1749137;80;25738;-74
2022/06/30 00:15:39;;;;;;;25.48;16.82;;;;;;;19.75;81.58;96993.30;1743128;80;25727;-77
2022/06/30 00:18:05;;;;;;;20.85;16.35;;;;;;;19.73;81.61;96984.53;1762056;80;25798;-74
2022/06/30 00:20:32;;;;;;;21.57;17.50;;;;;;;19.73;81.55;96986.45;1755316;80;28131;-75
2022/06/30 00:22:58;;;;;;;18.17;16.17;;;;;;;19.71;81.50;96986.73;1766122;80;25755;-75
2022/06/30 00:25:25;;;;;;;18.42;15.50;;;;;;;19.68;81.46;96987.28;1766937;80;25712;-75
2022/06/30 00:27:52;;;;;;;20.00;16.32;;;;;;;19.66;81.44;96984.03;1767626;80;26401;-74
2022/06/30 00:30:18;;;;;;;19.73;16.12;;;;;;;19.64;81.42;96977.19;1756258;80;25905;-74
2022/06/30 00:32:45;;;;;;;23.00;15.58;;;;;;;19.62;81.33;96977.46;1757987;80;27635;-74
2022/06/30 00:35:12;;;;;;;18.52;16.30;;;;;;;19.58;81.27;96973.63;1743764;80;25734;-74
2022/06/30 00:37:38;;;;;;;20.52;15.93;;;;;;;19.56;81.23;96977.19;1737551;80;25840;-75
2022/06/30 00:40:07;;;;;;;21.62;16.37;;;;;;;19.51;81.09;96984.07;1737602;80;25770;-77
2022/06/30 00:42:33;;;;;;;18.05;15.95;;;;;;;19.45;81.17;96979.66;1740290;80;25718;-75
2022/06/30 00:45:00;;;;;;;23.42;16.62;;;;;;;19.42;81.17;96981.61;1759174;80;27456;-75
2022/06/30 00:47:27;;;;;;;22.73;15.88;;;;;;;19.39;81.20;96983.52;1765314;81;25734;-75
2022/06/30 00:49:54;;;;;;;17.30;14.73;;;;;;;19.37;81.11;96981.06;1746640;81;25753;-75
2022/06/30 00:52:24;;;;;;;16.82;15.08;;;;;;;19.34;81.05;96987.62;1766837;80;25729;-75
2022/06/30 00:54:53;;;;;;;18.05;15.88;;;;;;;19.30;81.09;96986.02;1766861;81;25824;-76
2022/06/30 00:57:21;;;;;;;18.25;15.95;;;;;;;19.25;80.95;96993.41;1757996;80;27246;-75
2022/06/30 00:59:52;;;;;;;20.25;16.27;;;;;;;19.21;81.09;96990.94;1766139;80;25893;-75
2022/06/30 01:02:20;;;;;;;20.88;16.23;;;;;;;19.18;81.17;96992.33;1685387;83;25759;-77
2022/06/30 01:04:50;;;;;;;23.95;15.05;;;;;;;19.15;81.16;96986.04;1675646;84;25796;-76
2022/06/30 01:07:17;;;;;;;17.55;14.85;;;;;;;19.12;81.21;96989.86;1684615;83;25942;-75
2022/06/30 01:12:44;;;;;;;15.23;13.75;;;;;;;19.08;81.19;96991.78;1676094;84;26119;-75
2022/06/30 01:15:18;;;;;;;16.65;14.63;;;;;;;19.06;81.20;96984.96;1697970;84;26112;-76
2022/06/30 01:17:46;;;;;;;18.10;16.07;;;;;;;19.04;81.26;96988.52;1686819;84;26483;-74
2022/06/30 01:20:15;;;;;;;19.30;16.45;;;;;;;19.02;81.27;96987.42;1678553;84;25954;-75
2022/06/30 01:22:43;;;;;;;18.85;17.05;;;;;;;19.03;81.30;96994.53;1697184;84;27486;-74
2022/06/30 01:25:10;;;;;;;18.35;16.37;;;;;;;19.02;81.33;96996.99;1701849;83;25978;-74
2022/06/30 01:27:38;;;;;;;22.70;18.02;;;;;;;19.02;81.33;96996.99;1690236;83;26775;-77
2022/06/30 01:30:05;;;;;;;22.40;18.62;;;;;;;18.99;81.32;97001.64;1682372;84;25944;-75
2022/06/30 01:32:32;;;;;;;24.23;18.60;;;;;;;18.95;81.49;96995.09;1702385;83;25893;-74
2022/06/30 01:34:59;;;;;;;22.45;19.27;;;;;;;18.94;81.65;97004.39;1685155;83;27607;-74
2022/06/30 01:37:26;;;;;;;28.15;19.25;;;;;;;18.95;81.76;96995.64;1689094;83;25775;-76
2022/06/30 01:39:53;;;;;;;22.90;19.62;;;;;;;18.96;81.82;97004.91;1697818;83;26488;-77
2022/06/30 01:42:20;;;;;;;25.55;18.75;;;;;;;18.97;81.90;97000.27;1688793;84;25867;-75
2022/06/30 01:44:47;;;;;;;25.82;18.62;;;;;;;18.93;81.91;96994.55;1702259;83;26114;-76
2022/06/30 01:47:14;;;;;;;27.27;19.87;;;;;;;18.93;81.97;96995.91;1696864;83;27446;-75
2022/06/30 01:49:40;;;;;;;24.98;18.73;;;;;;;18.93;81.96;96991.81;1698377;83;25810;-74
2022/06/30 01:52:07;;;;;;;33.23;20.02;;;;;;;18.91;81.95;96995.91;1677474;83;25827;-75
2022/06/30 01:54:34;;;;;;;24.32;18.92;;;;;;;18.91;82.01;96989.89;1702479;83;25953;-75
2022/06/30 01:57:00;;;;;;;20.55;18.35;;;;;;;18.91;82.00;96988.53;1693436;83;25316;-74
2022/06/30 01:59:27;;;;;;;23.57;18.15;;;;;;;18.92;82.03;96992.91;1735554;80;27495;-75
2022/06/30 02:01:54;;;;;;;33.33;17.57;;;;;;;18.91;82.04;96992.63;1741202;80;25827;-75
2022/06/30 02:07:05;;;;;;;21.45;17.25;;;;;;;18.89;82.09;96983.88;1748561;80;25797;-75
2022/06/30 02:09:32;;;;;;;28.77;18.50;;;;;;;18.88;82.09;96983.59;1751046;80;25686;-74
2022/06/30 02:14:43;;;;;;;22.10;18.05;;;;;;;18.86;82.12;96980.31;1754037;80;25472;-75
2022/06/30 02:17:10;;;;;;;20.10;18.00;;;;;;;18.82;82.09;96975.14;1737860;80;26486;-78
2022/06/30 02:19:37;;;;;;;29.60;17.23;;;;;;;18.77;82.06;96980.59;1765973;80;25720;-78
2022/06/30 02:22:04;;;;;;;20.12;16.60;;;;;;;18.77;82.09;96979.23;1767641;81;25787;-77
2022/06/30 02:24:30;;;;;;;19.80;16.67;;;;;;;18.72;81.98;96968.28;1752160;80;28492;-76
2022/06/30 02:26:57;;;;;;;20.05;16.70;;;;;;;18.68;82.03;96970.77;1742001;80;25783;-75
2022/06/30 02:29:24;;;;;;;22.17;17.20;;;;;;;18.64;82.05;96968.84;1753567;80;25749;-77
2022/06/30 02:31:51;;;;;;;18.90;16.00;;;;;;;18.64;82.15;96979.77;1763053;80;25806;-76
2022/06/30 02:34:18;;;;;;;23.20;16.67;;;;;;;18.61;82.06;96974.84;1764507;80;25678;-77
2022/06/30 02:36:44;;;;;;;22.48;16.17;;;;;;;18.60;82.06;96975.39;1757612;80;28023;-74
2022/06/30 02:39:11;;;;;;;22.82;16.80;;;;;;;18.58;82.06;96975.41;1748453;80;25435;-75
2022/06/30 02:41:37;;;;;;;18.65;16.73;;;;;;;18.56;82.07;96974.83;1762274;80;26752;-75
2022/06/30 02:44:04;;;;;;;18.50;15.80;;;;;;;18.56;82.04;96973.46;1768044;81;26221;-75
2022/06/30 02:46:31;;;;;;;18.55;15.48;;;;;;;18.55;81.97;96978.65;1761810;80;25907;-74
2022/06/30 02:48:57;;;;;;;24.10;16.37;;;;;;;18.49;81.79;96974.26;1760129;80;27206;-76
2022/06/30 02:51:24;;;;;;;18.82;15.85;;;;;;;18.45;81.89;96973.19;1737651;80;25714;-77
2022/06/30 02:53:51;;;;;;;19.30;14.95;;;;;;;18.46;81.90;96972.09;1737610;80;25337;-74
2022/06/30 02:56:17;;;;;;;19.32;15.45;;;;;;;18.44;81.89;96968.80;1750706;80;26540;-76
2022/06/30 02:58:44;;;;;;;22.07;15.40;;;;;;;18.44;81.85;96977.00;1762119;80;25672;-75
2022/06/30 03:01:11;;;;;;;17.35;15.40;;;;;;;18.43;81.86;96977.55;1757085;80;27462;-75
2022/06/30 03:03:37;;;;;;;17.15;14.78;;;;;;;18.40;81.86;96977.27;1743236;80;25782;-77
2022/06/30 03:06:04;;;;;;;16.40;14.75;;;;;;;18.37;81.90;96982.72;1757133;80;25722;-77
2022/06/30 03:08:30;;;;;;;17.32;14.80;;;;;;;18.35;81.88;96985.72;1737812;80;26928;-75
2022/06/30 03:10:58;;;;;;;17.27;15.08;;;;;;;18.34;81.86;96984.10;1764652;80;25673;-75
2022/06/30 03:13:25;;;;;;;17.20;14.40;;;;;;;18.34;81.85;96984.65;1758377;80;27405;-77
2022/06/30 03:15:52;;;;;;;23.85;15.68;;;;;;;18.33;81.87;96982.45;1754360;80;25722;-76
2022/06/30 03:18:19;;;;;;;20.17;15.80;;;;;;;18.34;81.94;96983.28;1749392;80;25723;-75
2022/06/30 03:20:46;;;;;;;20.23;16.00;;;;;;;18.35;81.98;96985.72;1758138;80;25791;-75
2022/06/30 03:23:12;;;;;;;30.00;15.65;;;;;;;18.35;82.04;96981.62;1753060;80;25849;-75
2022/06/30 03:25:39;;;;;;;26.93;14.53;;;;;;;18.36;82.13;96986.00;1751191;80;26884;-74
2022/06/30 03:28:05;;;;;;;24.12;15.08;;;;;;;18.38;82.14;96990.37;1757911;80;25766;-75
2022/06/30 03:30:32;;;;;;;22.40;15.72;;;;;;;18.38;82.14;96994.47;1760621;80;26106;-74
2022/06/30 03:32:59;;;;;;;20.88;14.80;;;;;;;18.36;82.23;96992.83;1758149;80;25941;-75
2022/06/30 03:35:25;;;;;;;25.52;14.90;;;;;;;18.37;82.28;96990.91;1762207;80;25659;-75
2022/06/30 03:37:52;;;;;;;16.17;14.58;;;;;;;18.36;82.27;96996.10;1767009;80;27430;-77
2022/06/30 03:40:18;;;;;;;18.02;13.88;;;;;;;18.39;82.33;96993.38;1750652;80;26121;-77
2022/06/30 03:42:45;;;;;;;18.95;14.60;;;;;;;18.40;82.29;96999.13;1749348;80;25757;-77
2022/06/30 03:45:12;;;;;;;16.42;14.70;;;;;;;18.41;82.29;96998.03;1737885;80;25763;-75
2022/06/30 03:47:38;;;;;;;15.50;13.98;;;;;;;18.40;82.25;96995.02;1742875;80;25695;-75
2022/06/30 03:50:06;;;;;;;17.82;14.85;;;;;;;18.39;82.14;97008.41;1755484;80;28068;-78
2022/06/30 03:52:33;;;;;;;16.67;14.68;;;;;;;18.29;82.06;97002.38;1752720;80;25934;-75
2022/06/30 03:54:59;;;;;;;16.97;14.70;;;;;;;18.28;82.32;97007.03;1738213;80;25714;-76
2022/06/30 03:57:26;;;;;;;19.17;15.53;;;;;;;18.30;82.37;97015.78;1747831;80;25925;-76
2022/06/30 03:59:52;;;;;;;19.85;14.85;;;;;;;18.32;82.40;97013.60;1767297;81;25853;-75
2022/06/30 04:02:19;;;;;;;19.52;14.98;;;;;;;18.34;82.41;97010.60;1766267;80;27421;-78
2022/06/30 04:04:45;;;;;;;16.65;14.43;;;;;;;18.36;82.40;97011.95;1754080;80;25797;-75
2022/06/30 04:07:12;;;;;;;16.70;14.10;;;;;;;18.39;82.40;97013.33;1762637;80;25740;-74
2022/06/30 04:09:39;;;;;;;16.42;14.73;;;;;;;18.40;82.38;97008.14;1753805;80;25728;-75
2022/06/30 04:12:06;;;;;;;18.00;15.10;;;;;;;18.43;82.39;97010.89;1766971;81;25784;-76
2022/06/30 04:14:33;;;;;;;17.75;15.88;;;;;;;18.44;82.38;97012.53;1753200;80;27402;-74
2022/06/30 04:17:00;;;;;;;18.67;16.07;;;;;;;18.46;82.32;97008.44;1759457;80;25749;-74
2022/06/30 04:19:27;;;;;;;19.98;16.40;;;;;;;18.48;82.31;97010.88;1752318;80;25760;-77
2022/06/30 04:21:54;;;;;;;21.45;15.63;;;;;;;18.48;82.35;97013.61;1748676;80;26443;-73
2022/06/30 04:24:20;;;;;;;17.60;15.80;;;;;;;18.52;82.37;97014.72;1760714;80;25480;-74
2022/06/30 04:26:47;;;;;;;18.40;15.15;;;;;;;18.55;82.34;97021.02;1767977;80;27419;-76
2022/06/30 04:29:13;;;;;;;17.77;14.58;;;;;;;18.58;82.38;97019.97;1760567;80;25721;-75
2022/06/30 04:34:25;;;;;;;17.90;15.48;;;;;;;18.63;82.46;97021.87;1751911;80;26585;-74
2022/06/30 04:36:52;;;;;;;19.55;16.10;;;;;;;18.66;82.57;97024.06;1763804;80;25732;-76
2022/06/30 04:39:19;;;;;;;19.10;15.68;;;;;;;18.68;82.60;97024.62;1762528;80;27382;-74
2022/06/30 04:41:45;;;;;;;19.27;16.12;;;;;;;18.73;82.67;97023.23;1742311;80;25766;-77
2022/06/30 04:44:12;;;;;;;19.12;15.80;;;;;;;18.78;82.67;97019.16;1738778;80;25707;-78
2022/06/30 04:46:39;;;;;;;18.87;15.95;;;;;;;18.83;82.65;97024.63;1767260;81;25768;-78
2022/06/30 04:49:05;;;;;;;19.07;15.38;;;;;;;18.87;82.62;97021.61;1767684;81;25845;-75
2022/06/30 04:51:32;;;;;;;18.12;16.30;;;;;;;18.94;82.56;97023.54;1753782;80;28373;-77
2022/06/30 04:53:59;;;;;;;20.37;15.38;;;;;;;18.97;82.60;97013.39;1780874;79;25463;-75
2022/06/30 04:56:25;;;;;;;21.12;17.40;;;;;;;19.01;82.65;97013.13;1765331;79;25717;-79
2022/06/30 04:58:52;;;;;;;20.40;18.30;;;;;;;19.04;82.72;97009.86;1776875;79;26476;-75
2022/06/30 05:01:18;;;;;;;21.33;18.40;;;;;;;19.10;82.74;97008.46;1757844;79;25813;-78
2022/06/30 05:03:45;;;;;;;19.50;17.40;;;;;;;19.14;82.82;97010.93;1777817;79;27588;-75
2022/06/30 05:06:12;;;;;;;22.50;17.05;;;;;;;19.18;82.96;97014.77;1774540;79;25718;-75
2022/06/30 05:08:38;;;;;;;19.30;17.35;;;;;;;19.22;83.04;97014.47;1762312;80;25856;-76
2022/06/30 05:11:05;;;;;;;19.73;17.42;;;;;;;19.30;83.00;97015.30;1777229;79;25726;-78
2022/06/30 05:13:32;;;;;;;23.42;16.65;;;;;;;19.34;83.02;97010.89;1776505;79;25745;-75
2022/06/30 05:15:58;;;;;;;19.40;16.95;;;;;;;19.41;83.07;97010.89;1774614;79;27401;-75
2022/06/30 05:18:26;;;;;;;18.70;16.90;;;;;;;19.47;83.04;97010.31;1763840;80;25888;-75
2022/06/30 05:20:53;;;;;;;23.00;16.62;;;;;;;19.54;83.08;97015.55;1776553;79;25647;-76
2022/06/30 05:23:20;;;;;;;23.45;16.67;;;;;;;19.60;83.12;97015.24;1764537;80;26308;-75
2022/06/30 05:28:31;;;;;;;17.90;15.93;;;;;;;19.71;82.99;97005.89;1774107;80;28427;-77
2022/06/30 05:30:58;;;;;;;19.82;16.07;;;;;;;19.78;82.95;97006.44;1772089;80;25792;-76
2022/06/30 05:33:24;;;;;;;20.08;16.40;;;;;;;19.84;82.94;97003.66;1781123;80;25788;-75
2022/06/30 05:35:53;;;;;;;20.95;16.25;;;;;;;19.90;82.79;97006.66;1770824;80;25757;-77
2022/06/30 05:38:21;;;;;;;17.70;15.90;;;;;;;19.96;82.59;97004.16;1769338;79;25819;-76
2022/06/30 05:40:47;;;;;;;21.25;16.55;;;;;;;20.00;82.55;97001.13;1772552;80;27404;-76
2022/06/30 05:43:16;;;;;;;18.05;15.85;;;;;;;20.06;82.54;97003.55;1773771;79;25809;-77
2022/06/30 05:48:12;;;;;;;20.37;17.37;;;;;;;20.22;82.47;97010.33;1692295;84;26215;-77
2022/06/30 05:50:39;;;;;;;22.55;17.40;;;;;;;20.29;82.54;97002.05;1651908;85;25851;-75
2022/06/30 05:53:06;;;;;;;22.52;17.92;;;;;;;20.38;82.73;97007.27;1625527;87;27443;-77
2022/06/30 05:55:33;;;;;;;19.27;16.95;;;;;;;20.47;82.83;97004.73;1692730;84;25980;-76
2022/06/30 05:58:01;;;;;;;19.95;16.80;;;;;;;20.55;82.71;97010.16;1652117;85;25778;-75
2022/06/30 06:00:30;;;;;;;19.62;17.52;;;;;;;20.62;82.61;97008.75;1692472;84;26407;-75
2022/06/30 06:02:57;;;;;;;19.75;17.52;;;;;;;20.69;82.61;97007.05;1648873;85;25901;-76
2022/06/30 06:05:25;;;;;;;18.62;16.67;;;;;;;20.76;82.53;97004.81;1689913;84;27477;-75
2022/06/30 06:07:52;;;;;;;17.35;15.68;;;;;;;20.84;82.53;96995.96;1687438;84;25829;-78
2022/06/30 06:10:19;;;;;;;20.77;17.12;;;;;;;20.92;82.49;97001.38;1650290;85;26721;-76
2022/06/30 06:12:45;;;;;;;18.17;16.48;;;;;;;21.00;82.39;96994.73;1646934;86;25849;-75
2022/06/30 06:15:14;;;;;;;18.60;16.80;;;;;;;21.07;82.27;96993.84;1693497;84;25798;-75
2022/06/30 06:17:47;;;;;;;18.15;16.10;;;;;;;21.17;82.21;97002.52;1648647;85;28149;-76
2022/06/30 06:20:17;;;;;;;18.27;15.35;;;;;;;21.26;82.08;97002.73;1692416;84;25889;-76
2022/06/30 06:22:44;;;;;;;17.85;15.55;;;;;;;21.33;81.61;97003.23;1687320;84;25766;-76
2022/06/30 06:25:11;;;;;;;20.77;15.00;;;;;;;21.51;81.87;96999.73;1648366;85;25883;-76
2022/06/30 06:27:40;;;;;;;18.15;16.02;;;;;;;21.62;81.94;96999.89;1687207;84;25928;-76
2022/06/30 06:30:10;;;;;;;20.50;16.42;;;;;;;21.62;81.94;96999.89;1692569;84;27255;-78
2022/06/30 06:32:37;;;;;;;18.15;15.75;;;;;;;21.59;81.25;96974.41;1684754;84;25909;-77
2022/06/30 06:35:06;;;;;;;19.62;16.15;;;;;;;21.79;81.09;96990.63;1688371;84;25846;-77
2022/06/30 06:37:32;;;;;;;17.75;15.30;;;;;;;21.79;81.02;96965.91;1689016;83;25934;-77
2022/06/30 06:40:00;;;;;;;17.17;15.48;;;;;;;22.00;80.94;96995.90;1693839;84;25738;-76
2022/06/30 06:42:26;;;;;;;22.87;14.87;;;;;;;21.92;80.90;96962.45;1649995;85;27620;-77
2022/06/30 06:44:53;;;;;;;17.95;15.20;;;;;;;22.20;80.72;96988.23;1722769;79;25763;-76
2022/06/30 06:47:20;;;;;;;15.43;14.00;;;;;;;22.38;80.02;96985.21;1769929;80;25737;-76
2022/06/30 06:49:46;;;;;;;19.37;15.08;;;;;;;22.38;80.02;96985.21;1771003;80;25825;-76
2022/06/30 06:52:13;;;;;;;18.82;15.48;;;;;;;22.48;79.91;96988.36;1773100;80;25694;-75
2022/06/30 06:54:39;;;;;;;23.85;15.75;;;;;;;22.57;79.68;96987.42;1774836;80;28084;-77
2022/06/30 06:57:06;;;;;;;17.77;15.75;;;;;;;22.68;79.99;96990.02;1754759;80;25741;-76
2022/06/30 06:59:34;;;;;;;18.92;15.72;;;;;;;22.79;80.28;96983.26;1765951;80;26089;-77
2022/06/30 07:02:01;;;;;;;18.92;15.53;;;;;;;22.87;80.40;96978.44;1754797;80;25759;-77
2022/06/30 07:04:28;;;;;;;17.85;14.78;;;;;;;22.95;80.62;96981.31;1754730;80;25689;-78
2022/06/30 07:06:55;;;;;;;18.73;13.83;;;;;;;23.04;80.11;96981.46;1760919;80;28247;-80
2022/06/30 07:09:21;;;;;;;18.48;13.93;;;;;;;23.12;79.41;96987.64;1769066;80;26021;-78
2022/06/30 07:11:48;;;;;;;17.82;13.83;;;;;;;23.23;78.66;96991.85;1757190;80;25741;-78
2022/06/30 07:14:15;;;;;;;17.12;14.05;;;;;;;23.35;78.30;96985.30;1755861;80;25742;-77
2022/06/30 07:16:41;;;;;;;15.95;14.07;;;;;;;23.45;78.35;96974.64;1737939;80;26408;-78
2022/06/30 07:19:08;;;;;;;18.40;13.88;;;;;;;23.57;78.21;96978.31;1737871;80;27452;-77
2022/06/30 07:21:34;;;;;;;15.68;14.07;;;;;;;23.68;78.07;96975.05;1737408;80;25752;-77
2022/06/30 07:24:01;;;;;;;18.45;13.85;;;;;;;23.80;77.71;96973.16;1741237;80;25664;-75
2022/06/30 07:26:27;;;;;;;16.42;13.98;;;;;;;23.88;77.26;96975.22;1761044;79;26346;-77
2022/06/30 07:28:54;;;;;;;16.02;14.33;;;;;;;24.02;76.97;96971.89;1742119;80;26108;-75
2022/06/30 07:31:23;;;;;;;21.12;16.07;;;;;;;24.13;76.57;96970.30;1731433;80;27473;-75
2022/06/30 07:33:50;;;;;;;18.45;14.00;;;;;;;24.25;76.34;96966.47;1752941;80;25987;-75
2022/06/30 07:36:16;;;;;;;17.52;14.10;;;;;;;24.36;75.87;96969.25;1737696;79;25890;-74
2022/06/30 07:38:44;;;;;;;20.77;13.50;;;;;;;24.47;75.75;96957.42;1739070;80;25770;-75
2022/06/30 07:41:11;;;;;;;16.50;14.00;;;;;;;24.60;75.81;96958.76;1769128;79;26288;-77
2022/06/30 07:43:38;;;;;;;15.08;13.53;;;;;;;24.76;75.54;96959.19;1746389;80;27411;-78
2022/06/30 07:46:06;;;;;;;16.10;13.38;;;;;;;24.89;75.14;96961.63;1759277;79;25734;-77
2022/06/30 07:48:33;;;;;;;15.83;12.80;;;;;;;25.02;74.78;96957.45;1746984;80;25950;-76
2022/06/30 07:51:00;;;;;;;20.48;12.20;;;;;;;25.17;74.24;96958.20;1747023;80;25838;-76
2022/06/30 07:53:26;;;;;;;13.28;11.90;;;;;;;25.27;73.55;96960.13;1768637;80;25880;-75
2022/06/30 07:55:53;;;;;;;19.73;12.63;;;;;;;25.40;73.16;96963.37;1738818;80;27476;-75
2022/06/30 07:58:20;;;;;;;15.90;12.75;;;;;;;25.55;73.28;96957.19;1754363;79;25846;-77
2022/06/30 08:00:47;;;;;;;14.98;11.95;;;;;;;25.71;73.05;96965.34;1762171;80;25824;-77
2022/06/30 08:03:13;;;;;;;16.32;12.93;;;;;;;25.96;73.03;96965.19;1739025;80;25728;-76
2022/06/30 08:05:40;;;;;;;13.62;11.70;;;;;;;26.30;72.91;96961.14;1731531;80;25454;-74
2022/06/30 08:08:07;;;;;;;17.95;11.90;;;;;;;26.71;72.52;96960.66;1750304;80;27568;-76
2022/06/30 08:10:33;;;;;;;15.60;12.13;;;;;;;27.14;72.12;96948.77;1747991;80;25711;-75
2022/06/30 08:13:00;;;;;;;15.85;12.28;;;;;;;27.60;71.27;96954.36;1757426;79;25766;-75
2022/06/30 08:15:26;;;;;;;13.15;11.85;;;;;;;28.05;70.56;96959.36;1758726;80;25682;-76
2022/06/30 08:17:53;;;;;;;11.75;10.63;;;;;;;28.48;70.04;96956.92;1755274;80;25800;-76
2022/06/30 08:20:20;;;;;;;13.55;10.95;;;;;;;28.89;69.02;96952.76;1739121;79;28124;-77
2022/06/30 08:22:46;;;;;;;12.50;10.98;;;;;;;29.26;68.47;96955.67;1731485;79;26053;-76
2022/06/30 08:25:13;;;;;;;11.90;10.58;;;;;;;29.57;67.59;96951.85;1752263;79;25791;-76
2022/06/30 08:27:39;;;;;;;14.40;11.03;;;;;;;29.85;66.43;96960.32;1744563;79;25779;-76
2022/06/30 08:30:08;;;;;;;12.25;10.98;;;;;;;30.14;65.33;96952.94;1751521;79;25836;-77
2022/06/30 08:32:34;;;;;;;12.20;10.85;;;;;;;30.30;65.13;96953.28;1761321;79;27219;-76
2022/06/30 08:35:01;;;;;;;11.55;10.40;;;;;;;30.55;64.81;96954.05;1754385;80;25667;-77
2022/06/30 08:37:28;;;;;;;15.78;9.68;;;;;;;30.78;64.18;96955.18;1767684;79;25887;-75
2022/06/30 08:42:41;;;;;;;11.57;7.92;;;;;;;31.41;61.77;96944.80;1738638;79;25818;-76
2022/06/30 08:45:17;;;;;;;10.03;8.75;;;;;;;31.77;61.27;96947.95;1740992;80;27427;-77
2022/06/30 08:47:45;;;;;;;12.75;9.30;;;;;;;32.12;60.56;96946.04;1769194;80;25868;-77
2022/06/30 08:50:14;;;;;;;10.40;8.85;;;;;;;32.45;60.09;96942.88;1751296;79;25282;-77
2022/06/30 08:52:53;;;;;;;13.00;8.65;;;;;;;32.76;59.55;96946.75;1761092;78;25882;-79
2022/06/30 08:55:29;;;;;;;12.43;9.15;;;;;;;33.03;58.87;96941.55;1747033;79;25704;-77
2022/06/30 08:58:03;;;;;;;10.55;8.33;;;;;;;33.31;58.30;96932.94;1759319;79;27364;-77
2022/06/30 09:00:31;;;;;;;11.53;8.60;;;;;;;33.57;57.64;96935.03;1770335;80;26340;-77
2022/06/30 09:02:57;;;;;;;15.65;8.15;;;;;;;33.84;56.76;96928.31;1745465;79;25885;-76
2022/06/30 09:05:24;;;;;;;8.58;7.60;;;;;;;33.97;55.81;96925.53;1745122;79;25723;-78
2022/06/30 09:07:51;;;;;;;11.00;7.87;;;;;;;34.05;55.30;96926.48;1738859;79;26375;-77
2022/06/30 09:10:17;;;;;;;9.10;7.03;;;;;;;34.28;54.53;96931.47;1745480;80;27416;-77
2022/06/30 09:12:59;;;;;;;7.90;7.15;;;;;;;34.55;53.56;96930.83;1745249;79;25396;-77
2022/06/30 09:15:33;;;;;;;7.30;6.60;;;;;;;34.78;53.11;96929.99;1730631;79;25850;-77
2022/06/30 09:18:01;;;;;;;8.75;6.40;;;;;;;34.84;52.49;96928.45;1680704;83;25817;-77
2022/06/30 09:20:39;;;;;;;10.03;6.55;;;;;;;34.90;51.28;96929.75;1696474;83;26769;-75
2022/06/30 09:23:29;;;;;;;6.42;5.60;;;;;;;35.01;51.50;96929.28;1712294;81;28147;-74
2022/06/30 09:26:00;;;;;;;6.80;5.70;;;;;;;35.34;50.43;96922.27;1707433;81;25777;-76
2022/06/30 09:28:51;;;;;;;6.87;4.80;;;;;;;35.72;49.79;96920.24;1680992;84;25782;-77
2022/06/30 09:31:38;;;;;;;8.73;5.12;;;;;;;35.92;49.24;96918.84;1667249;85;35466;-77
2022/06/30 09:34:18;;;;;;;6.72;4.70;;;;;;;36.06;48.60;96916.14;1664976;85;25911;-76
2022/06/30 09:36:45;;;;;;;7.45;4.47;;;;;;;36.27;48.15;96916.11;1649428;86;27431;-76
2022/06/30 09:39:13;;;;;;;5.47;4.47;;;;;;;36.35;46.98;96919.20;1664161;85;25910;-76
2022/06/30 09:41:42;;;;;;;8.90;5.10;;;;;;;36.41;45.27;96914.80;1668796;85;25889;-76
2022/06/30 09:44:22;;;;;;;7.28;4.90;;;;;;;36.40;45.44;96917.41;1661815;85;25811;-76
2022/06/30 09:47:01;;;;;;;7.08;4.85;;;;;;;36.53;44.84;96910.26;1668637;85;25899;-76
2022/06/30 09:49:32;;;;;;;7.60;4.45;;;;;;;36.60;44.46;96910.29;1668478;85;27466;-76
2022/06/30 09:52:06;;;;;;;6.17;4.05;;;;;;;36.75;43.54;96907.80;1636754;86;25901;-76
2022/06/30 09:54:35;;;;;;;10.03;4.70;;;;;;;36.74;42.36;96909.59;1630301;86;25981;-76
2022/06/30 09:57:07;;;;;;;9.90;5.17;;;;;;;36.62;41.74;96902.88;1633609;87;25840;-78
2022/06/30 09:59:35;;;;;;;7.72;4.30;;;;;;;36.66;42.54;96903.11;1637152;86;25875;-78
2022/06/30 10:02:07;;;;;;;6.35;4.37;;;;;;;36.81;42.01;96894.77;1633201;87;27509;-76
2022/06/30 10:04:56;;;;;;;8.08;4.40;;;;;;;36.83;41.24;96893.78;1632555;85;25752;-77
2022/06/30 10:07:23;;;;;;;6.85;4.37;;;;;;;36.82;41.09;96893.58;1645115;86;26191;-79
2022/06/30 10:09:51;;;;;;;4.25;3.85;;;;;;;36.86;40.36;96887.34;1632673;86;25938;-77
2022/06/30 10:12:25;;;;;;;6.22;3.92;;;;;;;36.98;40.11;96889.80;1633616;85;25844;-77
2022/06/30 10:14:54;;;;;;;7.83;4.00;;;;;;;37.07;39.33;96881.81;1624017;86;27584;-77
2022/06/30 10:17:28;;;;;;;6.75;4.40;;;;;;;36.99;38.94;96881.56;1618023;87;26042;-77
2022/06/30 10:19:55;;;;;;;6.55;4.25;;;;;;;36.98;38.59;96877.95;1624548;88;25940;-77
2022/06/30 10:22:25;;;;;;;4.35;3.77;;;;;;;36.95;38.41;96884.39;1593299;89;26114;-78
2022/06/30 10:24:54;;;;;;;5.75;3.90;;;;;;;37.05;38.54;96885.02;1624968;84;26265;-77
2022/06/30 10:27:24;;;;;;;5.10;4.00;;;;;;;37.06;37.70;96891.45;1642700;86;27351;-77
2022/06/30 10:30:02;;;;;;;8.63;3.98;;;;;;;37.13;37.16;96890.06;1637835;84;25742;-77
2022/06/30 10:32:58;;;;;;;9.05;4.20;;;;;;;37.21;37.46;96890.30;1642567;86;25816;-78
2022/06/30 10:35:48;;;;;;;7.95;4.87;;;;;;;37.29;37.25;96886.33;1576834;90;25887;-77
2022/06/30 10:38:48;;;;;;;5.22;4.30;;;;;;;37.40;37.07;96876.48;1574472;90;26136;-78
2022/06/30 10:41:17;;;;;;;5.33;4.08;;;;;;;37.45;37.07;96875.48;1579897;89;27706;-78
2022/06/30 10:44:09;;;;;;;7.92;4.60;;;;;;;37.35;36.68;96872.05;1605882;87;25847;-78
2022/06/30 10:46:46;;;;;;;6.80;4.17;;;;;;;37.38;37.04;96868.44;1604403;87;25786;-79
2022/06/30 10:49:13;;;;;;;5.17;3.85;;;;;;;37.34;36.07;96868.22;1559637;90;26082;-81
2022/06/30 10:51:41;;;;;;;7.92;4.72;;;;;;;37.19;36.15;96877.26;1571467;89;26185;-78
2022/06/30 10:54:08;;;;;;;7.47;4.42;;;;;;;37.12;36.38;96868.75;1559875;90;27416;-81
2022/06/30 10:56:57;;;;;;;7.30;4.70;;;;;;;37.12;36.06;96870.16;1570150;90;26005;-78
2022/06/30 10:59:30;;;;;;;6.65;4.90;;;;;;;37.20;36.31;96864.77;1566358;90;25904;-78
2022/06/30 11:02:16;;;;;;;7.22;4.90;;;;;;;37.17;36.82;96867.00;1563663;89;25878;-81
2022/06/30 11:04:49;;;;;;;5.75;4.60;;;;;;;37.36;36.61;96854.56;1571994;89;26108;-79
2022/06/30 11:07:24;;;;;;;6.25;4.37;;;;;;;37.43;35.33;96852.58;1567889;90;27459;-80
2022/06/30 11:09:57;;;;;;;8.30;5.00;;;;;;;37.27;35.69;96853.55;1563840;90;25902;-81
2022/06/30 11:12:37;;;;;;;5.65;4.65;;;;;;;37.37;35.77;96853.36;1521746;92;26113;-80
2022/06/30 11:15:03;;;;;;;12.28;4.85;;;;;;;37.32;35.78;96848.91;1533818;92;25987;-78
2022/06/30 11:17:32;;;;;;;7.30;4.50;;;;;;;37.31;35.25;96851.55;1525144;92;25852;-78
2022/06/30 11:20:06;;;;;;;7.97;4.00;;;;;;;37.31;35.38;96846.53;1508704;93;27559;-77
2022/06/30 11:22:34;;;;;;;11.28;4.50;;;;;;;37.37;35.63;96840.09;1521922;93;25881;-80
2022/06/30 11:25:11;;;;;;;7.85;4.95;;;;;;;37.22;34.66;96839.05;1516875;92;25433;-78
2022/06/30 11:27:39;;;;;;;6.80;4.67;;;;;;;37.23;35.49;96844.88;1519252;92;26547;-79
2022/06/30 11:30:11;;;;;;;6.83;4.83;;;;;;;37.28;35.40;96850.13;1510600;92;26078;-78
2022/06/30 11:32:39;;;;;;;13.65;5.08;;;;;;;37.38;35.69;96836.08;1520627;93;28147;-80
2022/06/30 11:35:07;;;;;;;5.58;4.28;;;;;;;37.48;35.75;96832.45;1518186;93;25921;-79
2022/06/30 11:37:34;;;;;;;5.80;4.75;;;;;;;37.57;35.59;96832.05;1517503;92;25955;-78
2022/06/30 11:40:05;;;;;;;11.08;4.92;;;;;;;37.64;35.34;96829.88;1514019;93;26697;-79
2022/06/30 11:42:33;;;;;;;5.28;4.75;;;;;;;37.72;34.52;96827.26;1521585;93;25896;-79
2022/06/30 11:45:00;;;;;;;5.20;4.58;;;;;;;37.54;33.67;96815.98;1542327;92;26922;-78
2022/06/30 11:47:29;;;;;;;7.90;5.00;;;;;;;37.25;34.08;96819.37;1539950;90;25931;-77